sensor_id;sensor_type;location;lat;lon;timestamp;temperature;humidity
56512;DHT22;42408;53.238;5.686;2023-05-14T00:00:43;10.80;99.90
56512;DHT22;42408;53.238;5.686;2023-05-14T00:03:08;10.80;99.90
56512;DHT22;42408;53.238;5.686;2023-05-14T00:05:34;10.80;99.90
56512;DHT22;42408;53.238;5.686;2023-05-14T00:08:00;10.80;99.90
56512;DHT22;42408;53.238;5.686;2023-05-14T00:10:26;10.80;99.90
56512;DHT22;42408;53.238;5.686;2023-05-14T00:12:52;10.80;99.90
56512;DHT22;42408;53.238;5.686;2023-05-14T00:15:17;10.80;99.90
56512;DHT22;42408;53.238;5.686;2023-05-14T00:17:43;10.80;99.90
56512;DHT22;42408;53.238;5.686;2023-05-14T00:20:09;10.70;99.90
56512;DHT22;42408;53.238;5.686;2023-05-14T00:22:37;10.70;99.90
56512;DHT22;42408;53.238;5.686;2023-05-14T00:25:04;10.70;99.90
56512;DHT22;42408;53.238;5.686;2023-05-14T00:27:31;10.70;99.90
56512;DHT22;42408;53.238;5.686;2023-05-14T00:29:56;10.70;99.90
56512;DHT22;42408;53.238;5.686;2023-05-14T00:32:23;10.70;99.90
56512;DHT22;42408;53.238;5.686;2023-05-14T00:34:48;10.70;99.90
56512;DHT22;42408;53.238;5.686;2023-05-14T00:37:14;10.70;99.90
56512;DHT22;42408;53.238;5.686;2023-05-14T00:39:39;10.70;99.90
56512;DHT22;42408;53.238;5.686;2023-05-14T00:42:05;10.70;99.90
56512;DHT22;42408;53.238;5.686;2023-05-14T00:44:31;10.70;99.90
56512;DHT22;42408;53.238;5.686;2023-05-14T00:46:58;10.70;99.90
56512;DHT22;42408;53.238;5.686;2023-05-14T00:49:25;10.70;99.90
56512;DHT22;42408;53.238;5.686;2023-05-14T00:51:51;10.70;99.90
56512;DHT22;42408;53.238;5.686;2023-05-14T00:54:17;10.70;99.90
56512;DHT22;42408;53.238;5.686;2023-05-14T00:56:47;10.70;99.90
56512;DHT22;42408;53.238;5.686;2023-05-14T00:59:13;10.70;99.90
56512;DHT22;42408;53.238;5.686;2023-05-14T01:01:39;10.70;99.90
56512;DHT22;42408;53.238;5.686;2023-05-14T01:04:05;10.70;99.90
56512;DHT22;42408;53.238;5.686;2023-05-14T01:09:35;10.60;99.90
56512;DHT22;42408;53.238;5.686;2023-05-14T01:12:09;10.70;99.90
56512;DHT22;42408;53.238;5.686;2023-05-14T01:17:09;10.70;99.90
56512;DHT22;42408;53.238;5.686;2023-05-14T01:19:42;10.70;99.90
56512;DHT22;42408;53.238;5.686;2023-05-14T01:22:09;10.70;99.90
56512;DHT22;42408;53.238;5.686;2023-05-14T01:24:35;10.80;99.90
56512;DHT22;42408;53.238;5.686;2023-05-14T01:30:06;10.80;99.90
56512;DHT22;42408;53.238;5.686;2023-05-14T01:32:34;10.80;99.90
56512;DHT22;42408;53.238;5.686;2023-05-14T01:35:01;10.80;99.90
56512;DHT22;42408;53.238;5.686;2023-05-14T01:37:29;10.90;99.90
56512;DHT22;42408;53.238;5.686;2023-05-14T01:39:55;10.80;99.90
56512;DHT22;42408;53.238;5.686;2023-05-14T01:42:22;10.80;99.90
56512;DHT22;42408;53.238;5.686;2023-05-14T01:44:48;10.80;99.90
56512;DHT22;42408;53.238;5.686;2023-05-14T01:47:14;10.80;99.90
56512;DHT22;42408;53.238;5.686;2023-05-14T01:49:39;10.80;99.90
56512;DHT22;42408;53.238;5.686;2023-05-14T01:52:05;10.80;99.90
56512;DHT22;42408;53.238;5.686;2023-05-14T01:54:32;10.80;99.90
56512;DHT22;42408;53.238;5.686;2023-05-14T01:56:58;10.80;99.90
56512;DHT22;42408;53.238;5.686;2023-05-14T01:59:24;10.80;99.90
56512;DHT22;42408;53.238;5.686;2023-05-14T02:01:49;10.70;99.90
56512;DHT22;42408;53.238;5.686;2023-05-14T02:04:15;10.70;99.90
56512;DHT22;42408;53.238;5.686;2023-05-14T02:06:41;10.80;99.90
56512;DHT22;42408;53.238;5.686;2023-05-14T02:09:06;10.70;99.90
56512;DHT22;42408;53.238;5.686;2023-05-14T02:11:32;10.80;99.90
56512;DHT22;42408;53.238;5.686;2023-05-14T02:13:58;10.70;99.90
56512;DHT22;42408;53.238;5.686;2023-05-14T02:16:23;10.70;99.90
56512;DHT22;42408;53.238;5.686;2023-05-14T02:18:49;10.70;99.90
56512;DHT22;42408;53.238;5.686;2023-05-14T02:21:14;10.80;99.90
56512;DHT22;42408;53.238;5.686;2023-05-14T02:23:40;10.70;99.90
56512;DHT22;42408;53.238;5.686;2023-05-14T02:26:08;10.80;99.90
56512;DHT22;42408;53.238;5.686;2023-05-14T02:28:34;10.70;99.90
56512;DHT22;42408;53.238;5.686;2023-05-14T02:30:59;10.70;99.90
56512;DHT22;42408;53.238;5.686;2023-05-14T02:33:26;10.70;99.90
56512;DHT22;42408;53.238;5.686;2023-05-14T02:35:52;10.70;99.90
56512;DHT22;42408;53.238;5.686;2023-05-14T02:38:17;10.70;99.90
56512;DHT22;42408;53.238;5.686;2023-05-14T02:40:44;10.70;99.90
56512;DHT22;42408;53.238;5.686;2023-05-14T02:43:09;10.70;99.90
56512;DHT22;42408;53.238;5.686;2023-05-14T02:45:35;10.80;99.90
56512;DHT22;42408;53.238;5.686;2023-05-14T02:48:00;10.70;99.90
56512;DHT22;42408;53.238;5.686;2023-05-14T02:50:26;10.70;99.90
56512;DHT22;42408;53.238;5.686;2023-05-14T02:52:52;10.80;99.90
56512;DHT22;42408;53.238;5.686;2023-05-14T02:55:17;10.70;99.90
56512;DHT22;42408;53.238;5.686;2023-05-14T02:57:43;10.70;99.90
56512;DHT22;42408;53.238;5.686;2023-05-14T03:00:09;10.80;99.90
56512;DHT22;42408;53.238;5.686;2023-05-14T03:02:35;10.80;99.90
56512;DHT22;42408;53.238;5.686;2023-05-14T03:05:01;10.80;99.90
56512;DHT22;42408;53.238;5.686;2023-05-14T03:07:27;10.80;99.90
56512;DHT22;42408;53.238;5.686;2023-05-14T03:09:53;10.90;99.90
56512;DHT22;42408;53.238;5.686;2023-05-14T03:12:19;10.90;99.90
56512;DHT22;42408;53.238;5.686;2023-05-14T03:14:45;10.90;99.90
56512;DHT22;42408;53.238;5.686;2023-05-14T03:17:11;10.90;99.90
56512;DHT22;42408;53.238;5.686;2023-05-14T03:19:36;10.90;99.90
56512;DHT22;42408;53.238;5.686;2023-05-14T03:22:02;11.00;99.90
56512;DHT22;42408;53.238;5.686;2023-05-14T03:24:28;11.00;99.90
56512;DHT22;42408;53.238;5.686;2023-05-14T03:26:53;11.00;99.90
56512;DHT22;42408;53.238;5.686;2023-05-14T03:29:19;11.00;99.90
56512;DHT22;42408;53.238;5.686;2023-05-14T03:31:45;11.10;99.90
56512;DHT22;42408;53.238;5.686;2023-05-14T03:34:10;11.00;99.90
56512;DHT22;42408;53.238;5.686;2023-05-14T03:36:36;11.00;99.90
56512;DHT22;42408;53.238;5.686;2023-05-14T03:39:04;11.00;99.90
56512;DHT22;42408;53.238;5.686;2023-05-14T03:41:31;11.00;99.90
56512;DHT22;42408;53.238;5.686;2023-05-14T03:43:57;11.00;99.90
56512;DHT22;42408;53.238;5.686;2023-05-14T03:46:23;10.90;99.90
56512;DHT22;42408;53.238;5.686;2023-05-14T03:48:48;11.00;99.90
56512;DHT22;42408;53.238;5.686;2023-05-14T03:51:14;11.00;99.90
56512;DHT22;42408;53.238;5.686;2023-05-14T03:53:40;11.00;99.90
56512;DHT22;42408;53.238;5.686;2023-05-14T03:56:05;11.00;99.90
56512;DHT22;42408;53.238;5.686;2023-05-14T03:58:31;11.00;99.90
56512;DHT22;42408;53.238;5.686;2023-05-14T04:00:57;11.00;99.90
56512;DHT22;42408;53.238;5.686;2023-05-14T04:03:22;11.00;99.90
56512;DHT22;42408;53.238;5.686;2023-05-14T04:05:50;11.00;99.90
56512;DHT22;42408;53.238;5.686;2023-05-14T04:08:16;11.00;99.90
56512;DHT22;42408;53.238;5.686;2023-05-14T04:10:41;11.00;99.90
56512;DHT22;42408;53.238;5.686;2023-05-14T04:13:07;11.10;99.90
56512;DHT22;42408;53.238;5.686;2023-05-14T04:15:33;11.10;99.90
56512;DHT22;42408;53.238;5.686;2023-05-14T04:18:00;11.10;99.90
56512;DHT22;42408;53.238;5.686;2023-05-14T04:20:26;11.10;99.90
56512;DHT22;42408;53.238;5.686;2023-05-14T04:22:53;11.10;99.90
56512;DHT22;42408;53.238;5.686;2023-05-14T04:25:18;11.10;99.90
56512;DHT22;42408;53.238;5.686;2023-05-14T04:27:44;11.10;99.90
56512;DHT22;42408;53.238;5.686;2023-05-14T04:30:10;11.20;99.90
56512;DHT22;42408;53.238;5.686;2023-05-14T04:32:36;11.10;99.90
56512;DHT22;42408;53.238;5.686;2023-05-14T04:35:03;11.10;99.90
56512;DHT22;42408;53.238;5.686;2023-05-14T04:37:29;11.20;99.90
56512;DHT22;42408;53.238;5.686;2023-05-14T04:39:55;11.20;99.90
56512;DHT22;42408;53.238;5.686;2023-05-14T04:42:21;11.20;99.90
56512;DHT22;42408;53.238;5.686;2023-05-14T04:44:46;11.30;99.90
56512;DHT22;42408;53.238;5.686;2023-05-14T04:47:13;11.20;99.90
56512;DHT22;42408;53.238;5.686;2023-05-14T04:49:38;11.20;99.90
56512;DHT22;42408;53.238;5.686;2023-05-14T04:52:05;11.30;99.90
56512;DHT22;42408;53.238;5.686;2023-05-14T04:54:30;11.30;99.90
56512;DHT22;42408;53.238;5.686;2023-05-14T04:56:56;11.30;99.90
56512;DHT22;42408;53.238;5.686;2023-05-14T04:59:22;11.30;99.90
56512;DHT22;42408;53.238;5.686;2023-05-14T05:01:47;11.40;99.90
56512;DHT22;42408;53.238;5.686;2023-05-14T05:04:13;11.40;99.90
56512;DHT22;42408;53.238;5.686;2023-05-14T05:06:39;11.40;99.90
56512;DHT22;42408;53.238;5.686;2023-05-14T05:09:04;11.40;99.90
56512;DHT22;42408;53.238;5.686;2023-05-14T05:11:30;11.40;99.90
56512;DHT22;42408;53.238;5.686;2023-05-14T05:13:55;11.50;99.90
56512;DHT22;42408;53.238;5.686;2023-05-14T05:16:21;11.50;99.90
56512;DHT22;42408;53.238;5.686;2023-05-14T05:18:47;11.50;99.90
56512;DHT22;42408;53.238;5.686;2023-05-14T05:21:12;11.60;99.90
56512;DHT22;42408;53.238;5.686;2023-05-14T05:23:38;11.50;99.90
56512;DHT22;42408;53.238;5.686;2023-05-14T05:26:04;11.60;99.90
56512;DHT22;42408;53.238;5.686;2023-05-14T05:28:29;11.60;99.90
56512;DHT22;42408;53.238;5.686;2023-05-14T05:30:55;11.60;99.90
56512;DHT22;42408;53.238;5.686;2023-05-14T05:33:21;11.70;99.90
56512;DHT22;42408;53.238;5.686;2023-05-14T05:35:47;11.80;99.90
56512;DHT22;42408;53.238;5.686;2023-05-14T05:38:14;11.80;99.90
56512;DHT22;42408;53.238;5.686;2023-05-14T05:40:42;11.90;99.90
56512;DHT22;42408;53.238;5.686;2023-05-14T05:43:08;11.90;99.90
56512;DHT22;42408;53.238;5.686;2023-05-14T05:45:33;11.90;99.90
56512;DHT22;42408;53.238;5.686;2023-05-14T05:47:59;12.00;99.90
56512;DHT22;42408;53.238;5.686;2023-05-14T05:50:25;12.10;99.90
56512;DHT22;42408;53.238;5.686;2023-05-14T05:52:51;12.10;99.90
56512;DHT22;42408;53.238;5.686;2023-05-14T05:55:17;12.20;99.90
56512;DHT22;42408;53.238;5.686;2023-05-14T05:57:43;12.30;99.90
56512;DHT22;42408;53.238;5.686;2023-05-14T06:00:09;12.40;99.90
56512;DHT22;42408;53.238;5.686;2023-05-14T06:02:39;12.50;99.90
56512;DHT22;42408;53.238;5.686;2023-05-14T06:05:05;12.60;99.90
56512;DHT22;42408;53.238;5.686;2023-05-14T06:07:31;12.60;99.90
56512;DHT22;42408;53.238;5.686;2023-05-14T06:09:56;12.70;99.90
56512;DHT22;42408;53.238;5.686;2023-05-14T06:12:22;12.80;99.90
56512;DHT22;42408;53.238;5.686;2023-05-14T06:14:48;12.80;99.90
56512;DHT22;42408;53.238;5.686;2023-05-14T06:17:13;12.80;99.90
56512;DHT22;42408;53.238;5.686;2023-05-14T06:19:39;12.80;99.90
56512;DHT22;42408;53.238;5.686;2023-05-14T06:22:04;12.90;99.90
56512;DHT22;42408;53.238;5.686;2023-05-14T06:24:30;12.80;99.90
56512;DHT22;42408;53.238;5.686;2023-05-14T06:26:56;12.90;99.90
56512;DHT22;42408;53.238;5.686;2023-05-14T06:29:21;12.90;99.90
56512;DHT22;42408;53.238;5.686;2023-05-14T06:31:47;12.90;99.90
56512;DHT22;42408;53.238;5.686;2023-05-14T06:34:13;12.90;99.90
56512;DHT22;42408;53.238;5.686;2023-05-14T06:36:38;13.00;99.90
56512;DHT22;42408;53.238;5.686;2023-05-14T06:39:04;13.10;99.90
56512;DHT22;42408;53.238;5.686;2023-05-14T06:41:30;13.20;99.90
56512;DHT22;42408;53.238;5.686;2023-05-14T06:43:56;13.20;99.90
56512;DHT22;42408;53.238;5.686;2023-05-14T06:46:22;13.30;99.90
56512;DHT22;42408;53.238;5.686;2023-05-14T06:48:47;13.30;99.90
56512;DHT22;42408;53.238;5.686;2023-05-14T06:51:13;13.30;99.90
56512;DHT22;42408;53.238;5.686;2023-05-14T06:53:39;13.30;99.90
56512;DHT22;42408;53.238;5.686;2023-05-14T06:56:05;13.30;99.90
56512;DHT22;42408;53.238;5.686;2023-05-14T06:58:31;13.30;99.90
56512;DHT22;42408;53.238;5.686;2023-05-14T07:00:57;13.30;99.90
56512;DHT22;42408;53.238;5.686;2023-05-14T07:03:22;13.30;99.90
56512;DHT22;42408;53.238;5.686;2023-05-14T07:05:48;13.40;99.90
56512;DHT22;42408;53.238;5.686;2023-05-14T07:08:14;13.50;99.90
56512;DHT22;42408;53.238;5.686;2023-05-14T07:10:40;13.80;99.90
56512;DHT22;42408;53.238;5.686;2023-05-14T07:13:05;14.10;99.90
56512;DHT22;42408;53.238;5.686;2023-05-14T07:15:31;14.40;99.90
56512;DHT22;42408;53.238;5.686;2023-05-14T07:17:56;14.50;99.90
56512;DHT22;42408;53.238;5.686;2023-05-14T07:20:22;14.60;99.90
56512;DHT22;42408;53.238;5.686;2023-05-14T07:22:51;14.60;99.90
56512;DHT22;42408;53.238;5.686;2023-05-14T07:25:17;14.50;99.90
56512;DHT22;42408;53.238;5.686;2023-05-14T07:27:43;14.50;99.90
56512;DHT22;42408;53.238;5.686;2023-05-14T07:30:08;14.30;99.90
56512;DHT22;42408;53.238;5.686;2023-05-14T07:32:34;14.20;99.90
56512;DHT22;42408;53.238;5.686;2023-05-14T07:35:00;14.10;99.90
56512;DHT22;42408;53.238;5.686;2023-05-14T07:37:26;14.10;99.90
56512;DHT22;42408;53.238;5.686;2023-05-14T07:39:52;14.10;99.90
56512;DHT22;42408;53.238;5.686;2023-05-14T07:42:18;14.10;99.90
56512;DHT22;42408;53.238;5.686;2023-05-14T07:44:43;14.10;99.90
56512;DHT22;42408;53.238;5.686;2023-05-14T07:47:10;14.10;99.90
56512;DHT22;42408;53.238;5.686;2023-05-14T07:49:36;14.20;99.90
56512;DHT22;42408;53.238;5.686;2023-05-14T07:52:01;14.20;99.90
56512;DHT22;42408;53.238;5.686;2023-05-14T07:54:27;14.20;99.90
56512;DHT22;42408;53.238;5.686;2023-05-14T07:56:53;14.30;99.90
56512;DHT22;42408;53.238;5.686;2023-05-14T07:59:18;14.20;99.90
56512;DHT22;42408;53.238;5.686;2023-05-14T08:01:44;14.20;99.90
56512;DHT22;42408;53.238;5.686;2023-05-14T08:04:09;14.20;99.90
56512;DHT22;42408;53.238;5.686;2023-05-14T08:06:40;14.30;99.90
56512;DHT22;42408;53.238;5.686;2023-05-14T08:09:06;14.30;99.90
56512;DHT22;42408;53.238;5.686;2023-05-14T08:11:33;14.30;99.90
56512;DHT22;42408;53.238;5.686;2023-05-14T08:13:59;14.30;99.90
56512;DHT22;42408;53.238;5.686;2023-05-14T08:16:25;14.30;99.90
56512;DHT22;42408;53.238;5.686;2023-05-14T08:18:51;14.30;99.90
56512;DHT22;42408;53.238;5.686;2023-05-14T08:21:16;14.40;99.90
56512;DHT22;42408;53.238;5.686;2023-05-14T08:23:42;14.40;99.90
56512;DHT22;42408;53.238;5.686;2023-05-14T08:26:08;14.50;99.90
56512;DHT22;42408;53.238;5.686;2023-05-14T08:28:34;14.60;99.90
56512;DHT22;42408;53.238;5.686;2023-05-14T08:30:59;14.70;99.90
56512;DHT22;42408;53.238;5.686;2023-05-14T08:33:25;14.90;99.90
56512;DHT22;42408;53.238;5.686;2023-05-14T08:35:52;15.10;99.90
56512;DHT22;42408;53.238;5.686;2023-05-14T08:38:17;15.30;99.90
56512;DHT22;42408;53.238;5.686;2023-05-14T08:40:47;15.40;99.90
56512;DHT22;42408;53.238;5.686;2023-05-14T08:43:15;15.70;99.90
56512;DHT22;42408;53.238;5.686;2023-05-14T08:45:43;15.90;99.90
56512;DHT22;42408;53.238;5.686;2023-05-14T08:48:11;16.10;99.90
56512;DHT22;42408;53.238;5.686;2023-05-14T08:50:39;16.20;99.90
56512;DHT22;42408;53.238;5.686;2023-05-14T08:53:05;16.30;99.90
56512;DHT22;42408;53.238;5.686;2023-05-14T08:55:31;16.20;99.90
56512;DHT22;42408;53.238;5.686;2023-05-14T08:57:58;16.30;99.90
56512;DHT22;42408;53.238;5.686;2023-05-14T09:00:24;16.50;99.90
56512;DHT22;42408;53.238;5.686;2023-05-14T09:02:51;16.60;99.90
56512;DHT22;42408;53.238;5.686;2023-05-14T09:05:17;16.80;99.90
56512;DHT22;42408;53.238;5.686;2023-05-14T09:07:44;17.00;99.90
56512;DHT22;42408;53.238;5.686;2023-05-14T09:10:11;17.20;99.90
56512;DHT22;42408;53.238;5.686;2023-05-14T09:12:37;17.30;99.90
56512;DHT22;42408;53.238;5.686;2023-05-14T09:15:02;17.30;99.90
56512;DHT22;42408;53.238;5.686;2023-05-14T09:17:29;17.40;99.90
56512;DHT22;42408;53.238;5.686;2023-05-14T09:19:55;17.40;99.90
56512;DHT22;42408;53.238;5.686;2023-05-14T09:22:20;17.50;99.90
56512;DHT22;42408;53.238;5.686;2023-05-14T09:25:01;17.60;99.90
56512;DHT22;42408;53.238;5.686;2023-05-14T09:27:29;17.80;99.90
56512;DHT22;42408;53.238;5.686;2023-05-14T09:30:09;18.00;99.90
56512;DHT22;42408;53.238;5.686;2023-05-14T09:32:40;18.10;99.90
56512;DHT22;42408;53.238;5.686;2023-05-14T09:35:09;18.10;99.90
56512;DHT22;42408;53.238;5.686;2023-05-14T09:37:36;18.10;99.90
56512;DHT22;42408;53.238;5.686;2023-05-14T09:40:06;18.10;99.90
56512;DHT22;42408;53.238;5.686;2023-05-14T09:42:33;18.10;99.90
56512;DHT22;42408;53.238;5.686;2023-05-14T09:44:59;18.10;99.90
56512;DHT22;42408;53.238;5.686;2023-05-14T09:47:24;18.00;99.90
56512;DHT22;42408;53.238;5.686;2023-05-14T09:49:51;18.00;99.90
56512;DHT22;42408;53.238;5.686;2023-05-14T09:52:19;18.00;99.90
56512;DHT22;42408;53.238;5.686;2023-05-14T09:54:48;18.00;99.90
56512;DHT22;42408;53.238;5.686;2023-05-14T09:57:15;18.10;99.90
56512;DHT22;42408;53.238;5.686;2023-05-14T09:59:41;18.00;99.90
56512;DHT22;42408;53.238;5.686;2023-05-14T10:02:54;18.00;99.90
56512;DHT22;42408;53.238;5.686;2023-05-14T10:05:03;18.00;99.90
56512;DHT22;42408;53.238;5.686;2023-05-14T10:07:37;18.10;99.90
56512;DHT22;42408;53.238;5.686;2023-05-14T10:10:06;18.20;99.90
56512;DHT22;42408;53.238;5.686;2023-05-14T10:12:33;18.30;99.90
56512;DHT22;42408;53.238;5.686;2023-05-14T10:15:08;18.30;99.90
56512;DHT22;42408;53.238;5.686;2023-05-14T10:17:39;18.40;99.90
56512;DHT22;42408;53.238;5.686;2023-05-14T10:20:07;18.50;99.90
56512;DHT22;42408;53.238;5.686;2023-05-14T10:22:34;18.60;99.90
56512;DHT22;42408;53.238;5.686;2023-05-14T10:25:01;18.60;99.90
56512;DHT22;42408;53.238;5.686;2023-05-14T10:27:27;18.80;99.90
56512;DHT22;42408;53.238;5.686;2023-05-14T10:29:54;18.80;99.90
56512;DHT22;42408;53.238;5.686;2023-05-14T10:32:21;18.80;99.90
56512;DHT22;42408;53.238;5.686;2023-05-14T10:34:49;18.80;99.90
56512;DHT22;42408;53.238;5.686;2023-05-14T10:37:24;18.80;99.90
56512;DHT22;42408;53.238;5.686;2023-05-14T10:39:59;18.80;99.90
56512;DHT22;42408;53.238;5.686;2023-05-14T10:45:00;18.80;99.90
56512;DHT22;42408;53.238;5.686;2023-05-14T10:47:30;18.70;99.90
56512;DHT22;42408;53.238;5.686;2023-05-14T10:50:01;18.70;99.90
56512;DHT22;42408;53.238;5.686;2023-05-14T10:52:28;18.70;99.90
56512;DHT22;42408;53.238;5.686;2023-05-14T10:54:54;18.80;99.90
56512;DHT22;42408;53.238;5.686;2023-05-14T10:57:25;19.00;99.90
56512;DHT22;42408;53.238;5.686;2023-05-14T10:59:53;19.20;99.90
56512;DHT22;42408;53.238;5.686;2023-05-14T11:02:26;19.30;99.90
56512;DHT22;42408;53.238;5.686;2023-05-14T11:07:33;19.50;99.90
56512;DHT22;42408;53.238;5.686;2023-05-14T11:10:04;19.50;99.90
56512;DHT22;42408;53.238;5.686;2023-05-14T11:12:31;19.60;99.90
56512;DHT22;42408;53.238;5.686;2023-05-14T11:14:57;19.60;99.90
56512;DHT22;42408;53.238;5.686;2023-05-14T11:17:27;19.60;99.90
56512;DHT22;42408;53.238;5.686;2023-05-14T11:19:54;19.60;99.90
56512;DHT22;42408;53.238;5.686;2023-05-14T11:22:20;19.70;99.90
56512;DHT22;42408;53.238;5.686;2023-05-14T11:24:46;19.70;99.90
56512;DHT22;42408;53.238;5.686;2023-05-14T11:27:11;19.80;99.90
56512;DHT22;42408;53.238;5.686;2023-05-14T11:29:37;19.70;99.90
56512;DHT22;42408;53.238;5.686;2023-05-14T11:32:04;19.60;99.90
56512;DHT22;42408;53.238;5.686;2023-05-14T11:34:31;19.60;99.90
56512;DHT22;42408;53.238;5.686;2023-05-14T11:36:56;19.70;99.90
56512;DHT22;42408;53.238;5.686;2023-05-14T11:39:22;19.80;99.90
56512;DHT22;42408;53.238;5.686;2023-05-14T11:41:47;19.90;99.90
56512;DHT22;42408;53.238;5.686;2023-05-14T11:44:13;19.90;99.90
56512;DHT22;42408;53.238;5.686;2023-05-14T11:46:39;19.90;99.90
56512;DHT22;42408;53.238;5.686;2023-05-14T11:49:05;20.00;99.90
56512;DHT22;42408;53.238;5.686;2023-05-14T11:51:31;20.00;99.90
56512;DHT22;42408;53.238;5.686;2023-05-14T11:53:57;20.10;99.90
56512;DHT22;42408;53.238;5.686;2023-05-14T11:56:25;20.10;99.90
56512;DHT22;42408;53.238;5.686;2023-05-14T11:58:56;20.00;99.90
56512;DHT22;42408;53.238;5.686;2023-05-14T12:01:22;20.00;99.90
56512;DHT22;42408;53.238;5.686;2023-05-14T12:03:49;20.00;99.90
56512;DHT22;42408;53.238;5.686;2023-05-14T12:06:14;19.90;99.90
56512;DHT22;42408;53.238;5.686;2023-05-14T12:08:40;19.90;99.90
56512;DHT22;42408;53.238;5.686;2023-05-14T12:11:07;19.90;99.90
56512;DHT22;42408;53.238;5.686;2023-05-14T12:13:33;20.00;99.90
56512;DHT22;42408;53.238;5.686;2023-05-14T12:16:01;20.00;99.90
56512;DHT22;42408;53.238;5.686;2023-05-14T12:18:28;19.90;99.90
56512;DHT22;42408;53.238;5.686;2023-05-14T12:20:55;20.00;99.90
56512;DHT22;42408;53.238;5.686;2023-05-14T12:23:28;20.00;99.90
56512;DHT22;42408;53.238;5.686;2023-05-14T12:25:54;20.10;99.90
56512;DHT22;42408;53.238;5.686;2023-05-14T12:28:22;20.20;99.90
56512;DHT22;42408;53.238;5.686;2023-05-14T12:30:54;20.40;99.90
56512;DHT22;42408;53.238;5.686;2023-05-14T12:33:20;20.40;99.90
56512;DHT22;42408;53.238;5.686;2023-05-14T12:35:54;20.50;99.90
56512;DHT22;42408;53.238;5.686;2023-05-14T12:38:26;20.60;99.90
56512;DHT22;42408;53.238;5.686;2023-05-14T12:40:52;20.70;99.90
56512;DHT22;42408;53.238;5.686;2023-05-14T12:43:18;20.80;99.90
56512;DHT22;42408;53.238;5.686;2023-05-14T12:45:44;20.80;99.90
56512;DHT22;42408;53.238;5.686;2023-05-14T12:48:10;20.80;99.90
56512;DHT22;42408;53.238;5.686;2023-05-14T12:50:37;20.80;99.90
56512;DHT22;42408;53.238;5.686;2023-05-14T12:53:03;20.80;99.90
56512;DHT22;42408;53.238;5.686;2023-05-14T12:55:30;20.80;99.90
56512;DHT22;42408;53.238;5.686;2023-05-14T12:57:55;20.90;99.90
56512;DHT22;42408;53.238;5.686;2023-05-14T13:00:22;20.80;99.90
56512;DHT22;42408;53.238;5.686;2023-05-14T13:02:47;20.90;99.90
56512;DHT22;42408;53.238;5.686;2023-05-14T13:05:13;20.90;99.90
56512;DHT22;42408;53.238;5.686;2023-05-14T13:07:39;21.00;99.90
56512;DHT22;42408;53.238;5.686;2023-05-14T13:10:05;21.10;99.90
56512;DHT22;42408;53.238;5.686;2023-05-14T13:12:31;21.00;99.90
56512;DHT22;42408;53.238;5.686;2023-05-14T13:14:57;21.10;99.90
56512;DHT22;42408;53.238;5.686;2023-05-14T13:17:22;21.10;99.90
56512;DHT22;42408;53.238;5.686;2023-05-14T13:19:48;21.10;99.90
56512;DHT22;42408;53.238;5.686;2023-05-14T13:22:13;21.00;99.90
56512;DHT22;42408;53.238;5.686;2023-05-14T13:24:41;21.10;99.90
56512;DHT22;42408;53.238;5.686;2023-05-14T13:27:07;21.10;99.90
56512;DHT22;42408;53.238;5.686;2023-05-14T13:29:32;21.10;99.90
56512;DHT22;42408;53.238;5.686;2023-05-14T13:31:58;21.00;99.90
56512;DHT22;42408;53.238;5.686;2023-05-14T13:34:23;21.00;99.90
56512;DHT22;42408;53.238;5.686;2023-05-14T13:36:49;21.00;99.90
56512;DHT22;42408;53.238;5.686;2023-05-14T13:39:15;21.00;99.90
56512;DHT22;42408;53.238;5.686;2023-05-14T13:41:41;21.10;99.90
56512;DHT22;42408;53.238;5.686;2023-05-14T13:44:06;21.10;99.90
56512;DHT22;42408;53.238;5.686;2023-05-14T13:46:32;21.00;99.90
56512;DHT22;42408;53.238;5.686;2023-05-14T13:48:58;20.90;99.90
56512;DHT22;42408;53.238;5.686;2023-05-14T13:51:23;20.80;99.90
56512;DHT22;42408;53.238;5.686;2023-05-14T13:53:49;20.70;99.90
56512;DHT22;42408;53.238;5.686;2023-05-14T13:56:14;20.60;99.90
56512;DHT22;42408;53.238;5.686;2023-05-14T13:58:40;20.50;99.90
56512;DHT22;42408;53.238;5.686;2023-05-14T14:01:06;20.40;99.90
56512;DHT22;42408;53.238;5.686;2023-05-14T14:03:32;20.40;99.90
56512;DHT22;42408;53.238;5.686;2023-05-14T14:05:57;20.40;99.90
56512;DHT22;42408;53.238;5.686;2023-05-14T14:08:23;20.40;99.90
56512;DHT22;42408;53.238;5.686;2023-05-14T14:10:49;20.40;99.90
56512;DHT22;42408;53.238;5.686;2023-05-14T14:13:15;20.30;99.90
56512;DHT22;42408;53.238;5.686;2023-05-14T14:15:40;20.40;99.90
56512;DHT22;42408;53.238;5.686;2023-05-14T14:18:07;20.30;99.90
56512;DHT22;42408;53.238;5.686;2023-05-14T14:20:33;20.20;99.90
56512;DHT22;42408;53.238;5.686;2023-05-14T14:22:59;20.10;99.90
56512;DHT22;42408;53.238;5.686;2023-05-14T14:25:25;20.10;99.90
56512;DHT22;42408;53.238;5.686;2023-05-14T14:27:51;20.10;99.90
56512;DHT22;42408;53.238;5.686;2023-05-14T14:30:16;20.10;99.90
56512;DHT22;42408;53.238;5.686;2023-05-14T14:32:47;20.10;99.90
56512;DHT22;42408;53.238;5.686;2023-05-14T14:35:15;20.00;99.90
56512;DHT22;42408;53.238;5.686;2023-05-14T14:37:41;19.80;99.90
56512;DHT22;42408;53.238;5.686;2023-05-14T14:40:10;19.80;99.90
56512;DHT22;42408;53.238;5.686;2023-05-14T14:42:36;19.80;99.90
56512;DHT22;42408;53.238;5.686;2023-05-14T14:45:03;19.80;99.90
56512;DHT22;42408;53.238;5.686;2023-05-14T14:47:29;19.70;99.90
56512;DHT22;42408;53.238;5.686;2023-05-14T14:49:56;19.70;99.90
56512;DHT22;42408;53.238;5.686;2023-05-14T14:52:22;19.70;99.90
56512;DHT22;42408;53.238;5.686;2023-05-14T14:54:48;19.60;99.90
56512;DHT22;42408;53.238;5.686;2023-05-14T14:57:14;19.60;99.90
56512;DHT22;42408;53.238;5.686;2023-05-14T14:59:40;19.60;99.90
56512;DHT22;42408;53.238;5.686;2023-05-14T15:02:07;19.60;99.90
56512;DHT22;42408;53.238;5.686;2023-05-14T15:04:33;19.50;99.90
56512;DHT22;42408;53.238;5.686;2023-05-14T15:06:59;19.40;99.90
56512;DHT22;42408;53.238;5.686;2023-05-14T15:09:25;19.40;99.90
56512;DHT22;42408;53.238;5.686;2023-05-14T15:11:51;19.30;99.90
56512;DHT22;42408;53.238;5.686;2023-05-14T15:14:16;19.20;99.90
56512;DHT22;42408;53.238;5.686;2023-05-14T15:16:42;19.30;99.90
56512;DHT22;42408;53.238;5.686;2023-05-14T15:19:08;19.20;99.90
56512;DHT22;42408;53.238;5.686;2023-05-14T15:21:34;19.20;99.90
56512;DHT22;42408;53.238;5.686;2023-05-14T15:24:02;19.30;99.90
56512;DHT22;42408;53.238;5.686;2023-05-14T15:26:28;19.30;99.90
56512;DHT22;42408;53.238;5.686;2023-05-14T15:28:54;19.30;99.90
56512;DHT22;42408;53.238;5.686;2023-05-14T15:31:20;19.30;99.90
56512;DHT22;42408;53.238;5.686;2023-05-14T15:33:45;19.20;99.90
56512;DHT22;42408;53.238;5.686;2023-05-14T15:36:11;19.20;99.90
56512;DHT22;42408;53.238;5.686;2023-05-14T15:38:37;19.30;99.90